Peachland, Canada
Current Conditions -  °F | °C
As of 9:00 PM on Wednesday 22 Oct 2014 (Local Time) from CYLW Reporting Station
Light Rain Light Rain  
Wind Chill: 46°   Ceiling: 6000
Heat Index: 48°   Visibility: 9mi
Dew Point: 48°   Wind: 5mph
Humidity: 100%   Direction: 330°NNW
Pressure: 29.59"   Gusts: NA
Location:  49.77°N, 119.74°W
Report Text: CYLW 230400Z AUTO 33004KT 310V010 9SM -RA OVC060 09/09 A2959 RMK PRESFR SLP023
Loading
Personal Weather Stations






























Interactive Weather Map
Tropical Storm Tracking
New forecast layout! Learn more

10-Day Weather Forecast

Advertisements
Track Severe Weather on mobile